sensor_id;sensor_type;location;lat;lon;timestamp;temperature;humidity
69715;HTU21D;56981;53.532;49.398;2024-01-30T00:00:19;-1.93;84.20
69715;HTU21D;56981;53.532;49.398;2024-01-30T00:02:46;-1.94;84.22
69715;HTU21D;56981;53.532;49.398;2024-01-30T00:05:12;-1.92;84.06
69715;HTU21D;56981;53.532;49.398;2024-01-30T00:07:38;-1.88;83.95
69715;HTU21D;56981;53.532;49.398;2024-01-30T00:10:05;-1.86;83.94
69715;HTU21D;56981;53.532;49.398;2024-01-30T00:12:31;-1.86;83.76
69715;HTU21D;56981;53.532;49.398;2024-01-30T00:14:58;-1.88;83.78
69715;HTU21D;56981;53.532;49.398;2024-01-30T00:17:24;-1.89;84.10
69715;HTU21D;56981;53.532;49.398;2024-01-30T00:19:51;-1.88;84.07
69715;HTU21D;56981;53.532;49.398;2024-01-30T00:22:17;-1.88;84.19
69715;HTU21D;56981;53.532;49.398;2024-01-30T00:24:44;-1.89;84.08
69715;HTU21D;56981;53.532;49.398;2024-01-30T00:27:10;-1.93;84.33
69715;HTU21D;56981;53.532;49.398;2024-01-30T00:29:36;-1.98;84.45
69715;HTU21D;56981;53.532;49.398;2024-01-30T00:32:03;-2.00;84.85
69715;HTU21D;56981;53.532;49.398;2024-01-30T00:34:29;-1.95;84.75
69715;HTU21D;56981;53.532;49.398;2024-01-30T00:36:55;-1.93;84.39
69715;HTU21D;56981;53.532;49.398;2024-01-30T00:39:21;-1.94;84.64
69715;HTU21D;56981;53.532;49.398;2024-01-30T00:41:47;-1.94;84.48
69715;HTU21D;56981;53.532;49.398;2024-01-30T00:44:13;-1.91;84.67
69715;HTU21D;56981;53.532;49.398;2024-01-30T00:46:39;-1.88;84.27
69715;HTU21D;56981;53.532;49.398;2024-01-30T00:49:05;-1.86;84.54
69715;HTU21D;56981;53.532;49.398;2024-01-30T00:51:31;-1.85;84.12
69715;HTU21D;56981;53.532;49.398;2024-01-30T00:53:57;-1.82;84.37
69715;HTU21D;56981;53.532;49.398;2024-01-30T00:56:23;-1.84;84.10
69715;HTU21D;56981;53.532;49.398;2024-01-30T00:58:50;-1.84;84.20
69715;HTU21D;56981;53.532;49.398;2024-01-30T01:01:16;-1.84;84.14
69715;HTU21D;56981;53.532;49.398;2024-01-30T01:03:42;-1.90;84.48
69715;HTU21D;56981;53.532;49.398;2024-01-30T01:06:09;-1.92;84.37
69715;HTU21D;56981;53.532;49.398;2024-01-30T01:08:36;-1.93;84.69
69715;HTU21D;56981;53.532;49.398;2024-01-30T01:11:02;-1.95;84.82
69715;HTU21D;56981;53.532;49.398;2024-01-30T01:13:29;-1.97;84.69
69715;HTU21D;56981;53.532;49.398;2024-01-30T01:15:55;-2.02;84.90
69715;HTU21D;56981;53.532;49.398;2024-01-30T01:18:21;-2.00;85.29
69715;HTU21D;56981;53.532;49.398;2024-01-30T01:20:47;-1.98;85.32
69715;HTU21D;56981;53.532;49.398;2024-01-30T01:23:13;-1.95;85.16
69715;HTU21D;56981;53.532;49.398;2024-01-30T01:25:40;-1.99;85.55
69715;HTU21D;56981;53.532;49.398;2024-01-30T01:28:06;-1.95;85.65
69715;HTU21D;56981;53.532;49.398;2024-01-30T01:30:32;-1.92;85.52
69715;HTU21D;56981;53.532;49.398;2024-01-30T01:32:59;-1.90;85.59
69715;HTU21D;56981;53.532;49.398;2024-01-30T01:35:28;-1.89;86.08
69715;HTU21D;56981;53.532;49.398;2024-01-30T01:37:54;-1.88;86.18
69715;HTU21D;56981;53.532;49.398;2024-01-30T01:40:29;-1.89;86.32
69715;HTU21D;56981;53.532;49.398;2024-01-30T01:42:55;-1.91;86.66
69715;HTU21D;56981;53.532;49.398;2024-01-30T01:45:22;-1.91;86.90
69715;HTU21D;56981;53.532;49.398;2024-01-30T01:47:51;-1.91;86.52
69715;HTU21D;56981;53.532;49.398;2024-01-30T01:50:18;-2.00;86.84
69715;HTU21D;56981;53.532;49.398;2024-01-30T01:52:48;-1.95;86.93
69715;HTU21D;56981;53.532;49.398;2024-01-30T01:55:16;-2.03;87.34
69715;HTU21D;56981;53.532;49.398;2024-01-30T01:57:44;-2.02;87.49
69715;HTU21D;56981;53.532;49.398;2024-01-30T02:00:12;-2.07;87.56
69715;HTU21D;56981;53.532;49.398;2024-01-30T02:02:39;-2.06;88.03
69715;HTU21D;56981;53.532;49.398;2024-01-30T02:05:05;-2.02;87.89
69715;HTU21D;56981;53.532;49.398;2024-01-30T02:07:32;-1.97;87.73
69715;HTU21D;56981;53.532;49.398;2024-01-30T02:09:58;-1.92;87.49
69715;HTU21D;56981;53.532;49.398;2024-01-30T02:12:24;-1.92;87.19
69715;HTU21D;56981;53.532;49.398;2024-01-30T02:14:50;-1.91;87.10
69715;HTU21D;56981;53.532;49.398;2024-01-30T02:17:16;-2.00;87.18
69715;HTU21D;56981;53.532;49.398;2024-01-30T02:19:43;-2.06;87.42
69715;HTU21D;56981;53.532;49.398;2024-01-30T02:22:09;-2.07;87.57
69715;HTU21D;56981;53.532;49.398;2024-01-30T02:24:35;-2.10;88.09
69715;HTU21D;56981;53.532;49.398;2024-01-30T02:27:02;-2.13;87.89
69715;HTU21D;56981;53.532;49.398;2024-01-30T02:29:28;-2.07;87.95
69715;HTU21D;56981;53.532;49.398;2024-01-30T02:31:54;-2.04;87.45
69715;HTU21D;56981;53.532;49.398;2024-01-30T02:34:20;-2.00;87.00
69715;HTU21D;56981;53.532;49.398;2024-01-30T02:36:47;-2.02;86.95
69715;HTU21D;56981;53.532;49.398;2024-01-30T02:39:13;-1.99;86.80
69715;HTU21D;56981;53.532;49.398;2024-01-30T02:41:42;-1.95;86.47
69715;HTU21D;56981;53.532;49.398;2024-01-30T02:44:08;-1.92;86.66
69715;HTU21D;56981;53.532;49.398;2024-01-30T02:46:34;-1.91;86.40
69715;HTU21D;56981;53.532;49.398;2024-01-30T02:49:00;-1.93;86.65
69715;HTU21D;56981;53.532;49.398;2024-01-30T02:51:27;-1.93;86.90
69715;HTU21D;56981;53.532;49.398;2024-01-30T02:53:53;-1.93;87.35
69715;HTU21D;56981;53.532;49.398;2024-01-30T02:56:19;-1.91;87.64
69715;HTU21D;56981;53.532;49.398;2024-01-30T02:58:45;-1.92;87.24
69715;HTU21D;56981;53.532;49.398;2024-01-30T03:01:11;-1.95;87.65
69715;HTU21D;56981;53.532;49.398;2024-01-30T03:03:37;-1.97;87.62
69715;HTU21D;56981;53.532;49.398;2024-01-30T03:06:03;-1.89;87.70
69715;HTU21D;56981;53.532;49.398;2024-01-30T03:08:29;-1.89;87.38
69715;HTU21D;56981;53.532;49.398;2024-01-30T03:10:55;-1.87;87.32
69715;HTU21D;56981;53.532;49.398;2024-01-30T03:13:21;-1.86;87.51
69715;HTU21D;56981;53.532;49.398;2024-01-30T03:15:49;-1.80;87.28
69715;HTU21D;56981;53.532;49.398;2024-01-30T03:18:15;-1.76;87.23
69715;HTU21D;56981;53.532;49.398;2024-01-30T03:20:41;-1.72;87.09
69715;HTU21D;56981;53.532;49.398;2024-01-30T03:23:07;-1.72;86.84
69715;HTU21D;56981;53.532;49.398;2024-01-30T03:25:34;-1.71;87.21
69715;HTU21D;56981;53.532;49.398;2024-01-30T03:28:00;-1.74;87.16
69715;HTU21D;56981;53.532;49.398;2024-01-30T03:30:27;-1.70;87.25
69715;HTU21D;56981;53.532;49.398;2024-01-30T03:32:53;-1.62;87.08
69715;HTU21D;56981;53.532;49.398;2024-01-30T03:35:19;-1.57;86.61
69715;HTU21D;56981;53.532;49.398;2024-01-30T03:37:46;-1.55;86.37
69715;HTU21D;56981;53.532;49.398;2024-01-30T03:40:12;-1.49;86.11
69715;HTU21D;56981;53.532;49.398;2024-01-30T03:42:38;-1.45;86.06
69715;HTU21D;56981;53.532;49.398;2024-01-30T03:45:05;-1.46;85.55
69715;HTU21D;56981;53.532;49.398;2024-01-30T03:47:31;-1.42;85.52
69715;HTU21D;56981;53.532;49.398;2024-01-30T03:49:57;-1.42;85.43
69715;HTU21D;56981;53.532;49.398;2024-01-30T03:52:23;-1.42;85.27
69715;HTU21D;56981;53.532;49.398;2024-01-30T03:54:49;-1.49;84.93
69715;HTU21D;56981;53.532;49.398;2024-01-30T03:57:15;-1.49;85.37
69715;HTU21D;56981;53.532;49.398;2024-01-30T03:59:42;-1.47;85.02
69715;HTU21D;56981;53.532;49.398;2024-01-30T04:02:10;-1.49;84.87
69715;HTU21D;56981;53.532;49.398;2024-01-30T04:04:36;-1.47;85.15
69715;HTU21D;56981;53.532;49.398;2024-01-30T04:07:03;-1.43;84.77
69715;HTU21D;56981;53.532;49.398;2024-01-30T04:09:29;-1.40;84.51
69715;HTU21D;56981;53.532;49.398;2024-01-30T04:11:55;-1.41;84.26
69715;HTU21D;56981;53.532;49.398;2024-01-30T04:14:21;-1.47;84.03
69715;HTU21D;56981;53.532;49.398;2024-01-30T04:16:47;-1.50;84.42
69715;HTU21D;56981;53.532;49.398;2024-01-30T04:19:13;-1.53;84.65
69715;HTU21D;56981;53.532;49.398;2024-01-30T04:21:39;-1.56;84.89
69715;HTU21D;56981;53.532;49.398;2024-01-30T04:24:05;-1.56;84.72
69715;HTU21D;56981;53.532;49.398;2024-01-30T04:26:31;-1.53;84.68
69715;HTU21D;56981;53.532;49.398;2024-01-30T04:28:57;-1.57;84.55
69715;HTU21D;56981;53.532;49.398;2024-01-30T04:31:24;-1.55;84.87
69715;HTU21D;56981;53.532;49.398;2024-01-30T04:33:50;-1.48;84.54
69715;HTU21D;56981;53.532;49.398;2024-01-30T04:36:16;-1.40;84.29
69715;HTU21D;56981;53.532;49.398;2024-01-30T04:38:43;-1.35;84.07
69715;HTU21D;56981;53.532;49.398;2024-01-30T04:41:09;-1.35;83.73
69715;HTU21D;56981;53.532;49.398;2024-01-30T04:43:35;-1.32;83.42
69715;HTU21D;56981;53.532;49.398;2024-01-30T04:46:01;-1.36;83.78
69715;HTU21D;56981;53.532;49.398;2024-01-30T04:48:27;-1.32;83.61
69715;HTU21D;56981;53.532;49.398;2024-01-30T04:50:53;-1.24;83.40
69715;HTU21D;56981;53.532;49.398;2024-01-30T04:53:20;-1.18;82.82
69715;HTU21D;56981;53.532;49.398;2024-01-30T04:55:46;-1.16;82.70
69715;HTU21D;56981;53.532;49.398;2024-01-30T04:58:13;-1.15;82.67
69715;HTU21D;56981;53.532;49.398;2024-01-30T05:00:39;-1.16;82.53
69715;HTU21D;56981;53.532;49.398;2024-01-30T05:03:05;-1.12;82.61
69715;HTU21D;56981;53.532;49.398;2024-01-30T05:05:31;-1.06;82.31
69715;HTU21D;56981;53.532;49.398;2024-01-30T05:07:57;-1.08;82.46
69715;HTU21D;56981;53.532;49.398;2024-01-30T05:10:23;-1.09;82.21
69715;HTU21D;56981;53.532;49.398;2024-01-30T05:12:50;-1.18;82.64
69715;HTU21D;56981;53.532;49.398;2024-01-30T05:15:16;-1.20;82.91
69715;HTU21D;56981;53.532;49.398;2024-01-30T05:17:42;-1.20;82.63
69715;HTU21D;56981;53.532;49.398;2024-01-30T05:20:08;-1.18;83.17
69715;HTU21D;56981;53.532;49.398;2024-01-30T05:22:36;-1.10;82.56
69715;HTU21D;56981;53.532;49.398;2024-01-30T05:25:04;-1.01;82.11
69715;HTU21D;56981;53.532;49.398;2024-01-30T05:27:30;-0.94;81.56
69715;HTU21D;56981;53.532;49.398;2024-01-30T05:29:56;-0.94;81.39
69715;HTU21D;56981;53.532;49.398;2024-01-30T05:32:23;-0.91;81.43
69715;HTU21D;56981;53.532;49.398;2024-01-30T05:34:49;-0.89;81.38
69715;HTU21D;56981;53.532;49.398;2024-01-30T05:37:16;-0.90;81.20
69715;HTU21D;56981;53.532;49.398;2024-01-30T05:39:43;-0.89;81.24
69715;HTU21D;56981;53.532;49.398;2024-01-30T05:42:09;-0.93;81.16
69715;HTU21D;56981;53.532;49.398;2024-01-30T05:44:35;-0.96;81.50
69715;HTU21D;56981;53.532;49.398;2024-01-30T05:47:02;-0.90;81.05
69715;HTU21D;56981;53.532;49.398;2024-01-30T05:49:28;-0.80;80.81
69715;HTU21D;56981;53.532;49.398;2024-01-30T05:51:54;-0.74;80.50
69715;HTU21D;56981;53.532;49.398;2024-01-30T05:54:20;-0.64;80.21
69715;HTU21D;56981;53.532;49.398;2024-01-30T05:56:46;-0.54;79.57
69715;HTU21D;56981;53.532;49.398;2024-01-30T05:59:12;-0.45;79.23
69715;HTU21D;56981;53.532;49.398;2024-01-30T06:01:38;-0.31;78.64
69715;HTU21D;56981;53.532;49.398;2024-01-30T06:04:10;-0.22;78.12
69715;HTU21D;56981;53.532;49.398;2024-01-30T06:06:36;-0.15;77.84
69715;HTU21D;56981;53.532;49.398;2024-01-30T06:09:02;-0.16;77.50
69715;HTU21D;56981;53.532;49.398;2024-01-30T06:11:29;-0.12;77.66
69715;HTU21D;56981;53.532;49.398;2024-01-30T06:13:55;-0.21;77.66
69715;HTU21D;56981;53.532;49.398;2024-01-30T06:16:21;-0.17;77.84
69715;HTU21D;56981;53.532;49.398;2024-01-30T06:18:48;-0.16;77.24
69715;HTU21D;56981;53.532;49.398;2024-01-30T06:21:14;-0.15;76.75
69715;HTU21D;56981;53.532;49.398;2024-01-30T06:23:40;-0.15;76.31
69715;HTU21D;56981;53.532;49.398;2024-01-30T06:26:07;-0.29;75.87
69715;HTU21D;56981;53.532;49.398;2024-01-30T06:28:33;-0.39;76.02
69715;HTU21D;56981;53.532;49.398;2024-01-30T06:31:01;-0.37;76.23
69715;HTU21D;56981;53.532;49.398;2024-01-30T06:33:27;-0.32;76.27
69715;HTU21D;56981;53.532;49.398;2024-01-30T06:35:53;-0.25;76.66
69715;HTU21D;56981;53.532;49.398;2024-01-30T06:38:20;-0.24;75.57
69715;HTU21D;56981;53.532;49.398;2024-01-30T06:40:46;-0.32;75.44
69715;HTU21D;56981;53.532;49.398;2024-01-30T06:43:12;-0.31;75.21
69715;HTU21D;56981;53.532;49.398;2024-01-30T06:45:38;-0.37;75.53
69715;HTU21D;56981;53.532;49.398;2024-01-30T06:48:04;-0.40;75.49
69715;HTU21D;56981;53.532;49.398;2024-01-30T06:50:31;-0.43;75.39
69715;HTU21D;56981;53.532;49.398;2024-01-30T06:52:57;-0.59;75.74
69715;HTU21D;56981;53.532;49.398;2024-01-30T06:55:23;-0.64;75.69
69715;HTU21D;56981;53.532;49.398;2024-01-30T06:57:50;-0.61;75.12
69715;HTU21D;56981;53.532;49.398;2024-01-30T07:00:16;-0.75;75.75
69715;HTU21D;56981;53.532;49.398;2024-01-30T07:02:42;-0.83;76.12
69715;HTU21D;56981;53.532;49.398;2024-01-30T07:05:09;-0.82;76.08
69715;HTU21D;56981;53.532;49.398;2024-01-30T07:07:35;-0.74;76.47
69715;HTU21D;56981;53.532;49.398;2024-01-30T07:10:01;-0.67;75.87
69715;HTU21D;56981;53.532;49.398;2024-01-30T07:12:27;-0.59;75.02
69715;HTU21D;56981;53.532;49.398;2024-01-30T07:14:54;-0.52;74.37
69715;HTU21D;56981;53.532;49.398;2024-01-30T07:17:22;-0.64;74.48
69715;HTU21D;56981;53.532;49.398;2024-01-30T07:19:48;-0.65;74.00
69715;HTU21D;56981;53.532;49.398;2024-01-30T07:22:14;-0.69;74.26
69715;HTU21D;56981;53.532;49.398;2024-01-30T07:24:43;-0.59;73.83
69715;HTU21D;56981;53.532;49.398;2024-01-30T07:27:15;-0.59;73.78
69715;HTU21D;56981;53.532;49.398;2024-01-30T07:29:43;-0.61;74.01
69715;HTU21D;56981;53.532;49.398;2024-01-30T07:32:10;-0.64;73.83
69715;HTU21D;56981;53.532;49.398;2024-01-30T07:34:36;-0.72;74.42
69715;HTU21D;56981;53.532;49.398;2024-01-30T07:37:02;-0.74;74.96
69715;HTU21D;56981;53.532;49.398;2024-01-30T07:39:29;-0.74;74.76
69715;HTU21D;56981;53.532;49.398;2024-01-30T07:41:55;-0.62;74.30
69715;HTU21D;56981;53.532;49.398;2024-01-30T07:44:22;-0.53;73.98
69715;HTU21D;56981;53.532;49.398;2024-01-30T07:46:49;-0.62;74.64
69715;HTU21D;56981;53.532;49.398;2024-01-30T07:49:15;-0.65;74.79
69715;HTU21D;56981;53.532;49.398;2024-01-30T07:51:41;-0.58;75.52
69715;HTU21D;56981;53.532;49.398;2024-01-30T07:54:07;-0.46;74.24
69715;HTU21D;56981;53.532;49.398;2024-01-30T07:56:34;-0.39;74.12
69715;HTU21D;56981;53.532;49.398;2024-01-30T07:59:00;-0.37;73.32
69715;HTU21D;56981;53.532;49.398;2024-01-30T08:01:26;-0.36;72.32
69715;HTU21D;56981;53.532;49.398;2024-01-30T08:03:52;-0.21;71.96
69715;HTU21D;56981;53.532;49.398;2024-01-30T08:06:18;-0.19;72.48
69715;HTU21D;56981;53.532;49.398;2024-01-30T08:08:44;-0.20;71.70
69715;HTU21D;56981;53.532;49.398;2024-01-30T08:11:10;-0.30;72.26
69715;HTU21D;56981;53.532;49.398;2024-01-30T08:13:36;-0.32;72.62
69715;HTU21D;56981;53.532;49.398;2024-01-30T08:16:02;-0.37;72.81
69715;HTU21D;56981;53.532;49.398;2024-01-30T08:18:29;-0.29;72.94
69715;HTU21D;56981;53.532;49.398;2024-01-30T08:20:55;-0.38;73.02
69715;HTU21D;56981;53.532;49.398;2024-01-30T08:23:21;-0.49;73.00
69715;HTU21D;56981;53.532;49.398;2024-01-30T08:25:52;-0.42;73.22
69715;HTU21D;56981;53.532;49.398;2024-01-30T08:28:18;-0.39;73.11
69715;HTU21D;56981;53.532;49.398;2024-01-30T08:30:44;-0.40;72.98
69715;HTU21D;56981;53.532;49.398;2024-01-30T08:33:10;-0.41;73.22
69715;HTU21D;56981;53.532;49.398;2024-01-30T08:35:36;-0.58;73.47
69715;HTU21D;56981;53.532;49.398;2024-01-30T08:38:03;-0.64;74.53
69715;HTU21D;56981;53.532;49.398;2024-01-30T08:40:30;-0.69;74.64
69715;HTU21D;56981;53.532;49.398;2024-01-30T08:42:56;-0.66;75.15
69715;HTU21D;56981;53.532;49.398;2024-01-30T08:45:22;-0.38;74.39
69715;HTU21D;56981;53.532;49.398;2024-01-30T08:47:53;-0.15;74.53
69715;HTU21D;56981;53.532;49.398;2024-01-30T08:50:19;-0.12;73.89
69715;HTU21D;56981;53.532;49.398;2024-01-30T08:52:46;0.12;73.95
69715;HTU21D;56981;53.532;49.398;2024-01-30T08:55:12;0.31;72.91
69715;HTU21D;56981;53.532;49.398;2024-01-30T08:57:39;0.23;72.99
69715;HTU21D;56981;53.532;49.398;2024-01-30T09:00:05;0.15;73.58
69715;HTU21D;56981;53.532;49.398;2024-01-30T09:02:32;-0.10;75.17
69715;HTU21D;56981;53.532;49.398;2024-01-30T09:04:58;-0.20;74.70
69715;HTU21D;56981;53.532;49.398;2024-01-30T09:07:24;-0.20;74.89
69715;HTU21D;56981;53.532;49.398;2024-01-30T09:09:50;0.04;75.14
69715;HTU21D;56981;53.532;49.398;2024-01-30T09:12:16;0.17;74.06
69715;HTU21D;56981;53.532;49.398;2024-01-30T09:14:42;0.08;75.13
69715;HTU21D;56981;53.532;49.398;2024-01-30T09:17:09;0.25;75.04
69715;HTU21D;56981;53.532;49.398;2024-01-30T09:19:35;0.43;74.20
69715;HTU21D;56981;53.532;49.398;2024-01-30T09:22:01;0.45;74.25
69715;HTU21D;56981;53.532;49.398;2024-01-30T09:24:27;0.33;74.74
69715;HTU21D;56981;53.532;49.398;2024-01-30T09:26:53;0.29;74.57
69715;HTU21D;56981;53.532;49.398;2024-01-30T09:29:20;0.31;73.86
69715;HTU21D;56981;53.532;49.398;2024-01-30T09:31:46;0.03;75.12
69715;HTU21D;56981;53.532;49.398;2024-01-30T09:34:13;-0.02;75.41
69715;HTU21D;56981;53.532;49.398;2024-01-30T09:36:39;-0.13;75.80
69715;HTU21D;56981;53.532;49.398;2024-01-30T09:39:05;-0.11;75.79
69715;HTU21D;56981;53.532;49.398;2024-01-30T09:41:33;-0.24;76.20
69715;HTU21D;56981;53.532;49.398;2024-01-30T09:44:02;-0.21;76.86
69715;HTU21D;56981;53.532;49.398;2024-01-30T09:46:31;-0.14;75.92
69715;HTU21D;56981;53.532;49.398;2024-01-30T09:48:58;-0.12;76.13
69715;HTU21D;56981;53.532;49.398;2024-01-30T09:51:25;-0.20;76.03
69715;HTU21D;56981;53.532;49.398;2024-01-30T09:53:53;-0.24;75.92
69715;HTU21D;56981;53.532;49.398;2024-01-30T09:56:20;-0.17;76.67
69715;HTU21D;56981;53.532;49.398;2024-01-30T09:58:47;-0.17;76.08
69715;HTU21D;56981;53.532;49.398;2024-01-30T10:01:15;-0.03;76.04
69715;HTU21D;56981;53.532;49.398;2024-01-30T10:03:44;0.13;74.93
69715;HTU21D;56981;53.532;49.398;2024-01-30T10:06:11;0.09;74.81
69715;HTU21D;56981;53.532;49.398;2024-01-30T10:08:37;-0.05;74.97
69715;HTU21D;56981;53.532;49.398;2024-01-30T10:11:03;-0.05;75.95
69715;HTU21D;56981;53.532;49.398;2024-01-30T10:13:29;0.05;75.31
69715;HTU21D;56981;53.532;49.398;2024-01-30T10:15:55;0.03;76.08
69715;HTU21D;56981;53.532;49.398;2024-01-30T10:18:23;-0.08;76.14
69715;HTU21D;56981;53.532;49.398;2024-01-30T10:20:51;-0.06;76.19
69715;HTU21D;56981;53.532;49.398;2024-01-30T10:23:17;0.03;76.01
69715;HTU21D;56981;53.532;49.398;2024-01-30T10:25:45;-0.01;76.13
69715;HTU21D;56981;53.532;49.398;2024-01-30T10:28:11;-0.00;75.57
69715;HTU21D;56981;53.532;49.398;2024-01-30T10:30:37;-0.06;76.17
69715;HTU21D;56981;53.532;49.398;2024-01-30T10:33:03;-0.07;76.70
69715;HTU21D;56981;53.532;49.398;2024-01-30T10:35:29;-0.09;76.41
69715;HTU21D;56981;53.532;49.398;2024-01-30T10:37:57;-0.17;76.73
69715;HTU21D;56981;53.532;49.398;2024-01-30T10:40:27;-0.13;77.53
69715;HTU21D;56981;53.532;49.398;2024-01-30T10:42:55;-0.10;77.14
69715;HTU21D;56981;53.532;49.398;2024-01-30T10:45:22;-0.23;77.48
69715;HTU21D;56981;53.532;49.398;2024-01-30T10:47:50;-0.16;77.18
69715;HTU21D;56981;53.532;49.398;2024-01-30T10:50:18;-0.05;76.85
69715;HTU21D;56981;53.532;49.398;2024-01-30T10:52:44;-0.12;76.75
69715;HTU21D;56981;53.532;49.398;2024-01-30T10:55:11;-0.09;77.09
69715;HTU21D;56981;53.532;49.398;2024-01-30T10:57:38;-0.11;76.91
69715;HTU21D;56981;53.532;49.398;2024-01-30T11:00:09;-0.14;77.33
69715;HTU21D;56981;53.532;49.398;2024-01-30T11:02:41;-0.11;77.68
69715;HTU21D;56981;53.532;49.398;2024-01-30T11:05:09;-0.24;77.68
69715;HTU21D;56981;53.532;49.398;2024-01-30T11:07:41;-0.25;77.89
69715;HTU21D;56981;53.532;49.398;2024-01-30T11:10:08;-0.23;77.98
69715;HTU21D;56981;53.532;49.398;2024-01-30T11:12:39;-0.10;78.17
69715;HTU21D;56981;53.532;49.398;2024-01-30T11:15:16;-0.14;77.50
69715;HTU21D;56981;53.532;49.398;2024-01-30T11:22:51;-0.09;78.92
69715;HTU21D;56981;53.532;49.398;2024-01-30T11:25:20;-0.10;78.24
69715;HTU21D;56981;53.532;49.398;2024-01-30T11:27:46;-0.09;78.47
69715;HTU21D;56981;53.532;49.398;2024-01-30T11:30:33;-0.07;78.82
69715;HTU21D;56981;53.532;49.398;2024-01-30T11:33:13;-0.08;78.34
69715;HTU21D;56981;53.532;49.398;2024-01-30T11:35:41;-0.23;79.75
69715;HTU21D;56981;53.532;49.398;2024-01-30T11:38:09;-0.13;78.92
69715;HTU21D;56981;53.532;49.398;2024-01-30T11:40:37;-0.22;79.04
69715;HTU21D;56981;53.532;49.398;2024-01-30T11:43:04;-0.28;79.78
69715;HTU21D;56981;53.532;49.398;2024-01-30T11:45:31;-0.14;79.71
69715;HTU21D;56981;53.532;49.398;2024-01-30T11:47:59;-0.12;79.12
69715;HTU21D;56981;53.532;49.398;2024-01-30T11:50:35;-0.01;79.11
69715;HTU21D;56981;53.532;49.398;2024-01-30T11:53:01;-0.11;79.06
69715;HTU21D;56981;53.532;49.398;2024-01-30T11:55:29;-0.09;79.02
69715;HTU21D;56981;53.532;49.398;2024-01-30T11:57:57;-0.02;78.88
69715;HTU21D;56981;53.532;49.398;2024-01-30T12:00:23;-0.06;78.91
69715;HTU21D;56981;53.532;49.398;2024-01-30T12:02:50;-0.03;78.88
69715;HTU21D;56981;53.532;49.398;2024-01-30T12:05:19;0.04;78.53
69715;HTU21D;56981;53.532;49.398;2024-01-30T12:07:46;0.06;78.47
69715;HTU21D;56981;53.532;49.398;2024-01-30T12:10:15;0.16;78.55
69715;HTU21D;56981;53.532;49.398;2024-01-30T12:12:46;0.20;78.34
69715;HTU21D;56981;53.532;49.398;2024-01-30T12:15:13;0.16;78.63
69715;HTU21D;56981;53.532;49.398;2024-01-30T12:17:40;0.06;79.17
69715;HTU21D;56981;53.532;49.398;2024-01-30T12:20:11;-0.12;79.68
69715;HTU21D;56981;53.532;49.398;2024-01-30T12:22:42;-0.20;80.24
69715;HTU21D;56981;53.532;49.398;2024-01-30T12:25:15;-0.28;80.81
69715;HTU21D;56981;53.532;49.398;2024-01-30T12:27:46;-0.30;81.11
69715;HTU21D;56981;53.532;49.398;2024-01-30T12:30:16;-0.38;81.52
69715;HTU21D;56981;53.532;49.398;2024-01-30T12:32:47;-0.35;81.26
69715;HTU21D;56981;53.532;49.398;2024-01-30T12:35:15;-0.38;81.24
69715;HTU21D;56981;53.532;49.398;2024-01-30T12:37:43;-0.44;81.86
69715;HTU21D;56981;53.532;49.398;2024-01-30T12:40:10;-0.50;81.79
69715;HTU21D;56981;53.532;49.398;2024-01-30T12:42:37;-0.47;82.53
69715;HTU21D;56981;53.532;49.398;2024-01-30T12:45:03;-0.41;82.39
69715;HTU21D;56981;53.532;49.398;2024-01-30T12:47:31;-0.46;82.24
69715;HTU21D;56981;53.532;49.398;2024-01-30T12:49:58;-0.56;82.40
69715;HTU21D;56981;53.532;49.398;2024-01-30T12:52:24;-0.70;83.13
69715;HTU21D;56981;53.532;49.398;2024-01-30T12:54:51;-0.62;83.49
69715;HTU21D;56981;53.532;49.398;2024-01-30T12:57:17;-0.62;83.13
69715;HTU21D;56981;53.532;49.398;2024-01-30T12:59:45;-0.71;83.64
69715;HTU21D;56981;53.532;49.398;2024-01-30T13:02:12;-0.79;84.01
69715;HTU21D;56981;53.532;49.398;2024-01-30T13:04:39;-0.74;84.37
69715;HTU21D;56981;53.532;49.398;2024-01-30T13:07:06;-0.70;83.89
69715;HTU21D;56981;53.532;49.398;2024-01-30T13:09:32;-0.72;84.07
69715;HTU21D;56981;53.532;49.398;2024-01-30T13:11:58;-0.70;83.81
69715;HTU21D;56981;53.532;49.398;2024-01-30T13:14:25;-0.74;83.86
69715;HTU21D;56981;53.532;49.398;2024-01-30T13:16:52;-0.74;83.77
69715;HTU21D;56981;53.532;49.398;2024-01-30T13:19:18;-0.80;84.19
69715;HTU21D;56981;53.532;49.398;2024-01-30T13:21:44;-0.81;84.36
69715;HTU21D;56981;53.532;49.398;2024-01-30T13:24:10;-0.83;84.17
69715;HTU21D;56981;53.532;49.398;2024-01-30T13:26:36;-0.88;84.48
69715;HTU21D;56981;53.532;49.398;2024-01-30T13:29:02;-0.91;84.59
69715;HTU21D;56981;53.532;49.398;2024-01-30T13:31:29;-0.93;84.48
69715;HTU21D;56981;53.532;49.398;2024-01-30T13:33:56;-0.93;84.57
69715;HTU21D;56981;53.532;49.398;2024-01-30T13:36:22;-0.90;84.72
69715;HTU21D;56981;53.532;49.398;2024-01-30T13:38:48;-0.83;84.38
69715;HTU21D;56981;53.532;49.398;2024-01-30T13:41:14;-0.73;83.93
69715;HTU21D;56981;53.532;49.398;2024-01-30T13:43:43;-0.77;83.88
69715;HTU21D;56981;53.532;49.398;2024-01-30T13:46:11;-0.84;84.07
69715;HTU21D;56981;53.532;49.398;2024-01-30T13:48:37;-0.85;84.18
69715;HTU21D;56981;53.532;49.398;2024-01-30T13:51:03;-0.83;84.20
69715;HTU21D;56981;53.532;49.398;2024-01-30T13:53:29;-0.84;84.43
69715;HTU21D;56981;53.532;49.398;2024-01-30T13:55:55;-0.83;84.53
69715;HTU21D;56981;53.532;49.398;2024-01-30T13:58:21;-0.81;84.74
69715;HTU21D;56981;53.532;49.398;2024-01-30T14:00:47;-0.82;85.23
69715;HTU21D;56981;53.532;49.398;2024-01-30T14:03:14;-0.77;85.26
69715;HTU21D;56981;53.532;49.398;2024-01-30T14:05:41;-0.76;85.47
69715;HTU21D;56981;53.532;49.398;2024-01-30T14:08:07;-0.70;85.66
69715;HTU21D;56981;53.532;49.398;2024-01-30T14:10:34;-0.61;85.69
69715;HTU21D;56981;53.532;49.398;2024-01-30T14:13:00;-0.55;85.77
69715;HTU21D;56981;53.532;49.398;2024-01-30T14:15:26;-0.46;85.64
69715;HTU21D;56981;53.532;49.398;2024-01-30T14:17:53;-0.42;85.53
69715;HTU21D;56981;53.532;49.398;2024-01-30T14:20:19;-0.40;85.67
69715;HTU21D;56981;53.532;49.398;2024-01-30T14:22:45;-0.37;85.56
69715;HTU21D;56981;53.532;49.398;2024-01-30T14:25:11;-0.38;85.80
69715;HTU21D;56981;53.532;49.398;2024-01-30T14:27:38;-0.36;85.93
69715;HTU21D;56981;53.532;49.398;2024-01-30T14:30:04;-0.32;85.92
69715;HTU21D;56981;53.532;49.398;2024-01-30T14:32:30;-0.34;86.09
69715;HTU21D;56981;53.532;49.398;2024-01-30T14:34:56;-0.32;86.29
69715;HTU21D;56981;53.532;49.398;2024-01-30T14:37:23;-0.31;86.25
69715;HTU21D;56981;53.532;49.398;2024-01-30T14:39:49;-0.30;86.60
69715;HTU21D;56981;53.532;49.398;2024-01-30T14:42:15;-0.26;86.58
69715;HTU21D;56981;53.532;49.398;2024-01-30T14:44:42;-0.29;86.56
69715;HTU21D;56981;53.532;49.398;2024-01-30T14:47:09;-0.26;86.66
69715;HTU21D;56981;53.532;49.398;2024-01-30T14:49:35;-0.27;86.95
69715;HTU21D;56981;53.532;49.398;2024-01-30T14:52:01;-0.27;86.93
69715;HTU21D;56981;53.532;49.398;2024-01-30T14:54:30;-0.27;87.15
69715;HTU21D;56981;53.532;49.398;2024-01-30T14:56:56;-0.27;87.19
69715;HTU21D;56981;53.532;49.398;2024-01-30T14:59:22;-0.25;87.41
69715;HTU21D;56981;53.532;49.398;2024-01-30T15:01:48;-0.25;87.48
69715;HTU21D;56981;53.532;49.398;2024-01-30T15:04:14;-0.20;87.55